createdAt,value
2023-03-04T00:00:28.352Z,28.38
2023-03-04T00:02:31.139Z,30.48
2023-03-04T00:04:33.967Z,33.67
2023-03-04T00:06:36.719Z,30.92
2023-03-04T00:08:39.494Z,31.52
2023-03-04T00:10:43.807Z,27.05
2023-03-04T00:12:46.547Z,23.15
2023-03-04T00:14:49.392Z,22.88
2023-03-04T00:16:52.236Z,23.70
2023-03-04T00:18:55.098Z,21.48
2023-03-04T00:20:57.861Z,21.38
2023-03-04T00:23:00.646Z,21.75
2023-03-04T00:25:03.488Z,22.20
2023-03-04T00:27:07.584Z,23.05
2023-03-04T00:29:10.454Z,20.95
2023-03-04T00:31:13.901Z,21.33
2023-03-04T00:33:17.151Z,21.17
2023-03-04T00:35:20.127Z,21.58
2023-03-04T00:37:23.036Z,20.60
2023-03-04T00:39:26.383Z,20.92
2023-03-04T00:41:29.160Z,21.92
2023-03-04T00:43:33.381Z,20.85
2023-03-04T00:45:36.374Z,21.35
2023-03-04T00:47:39.187Z,22.30
2023-03-04T00:49:42.058Z,22.23
2023-03-04T00:51:44.905Z,21.52
2023-03-04T00:53:47.998Z,21.13
2023-03-04T00:55:53.349Z,21.00
2023-03-04T00:57:56.184Z,21.73
2023-03-04T01:00:00.336Z,20.25
2023-03-04T01:02:03.173Z,20.23
2023-03-04T01:04:06.189Z,20.85
2023-03-04T01:06:09.758Z,20.40
2023-03-04T01:08:12.592Z,20.77
2023-03-04T01:10:16.736Z,21.88
2023-03-04T01:12:19.856Z,22.00
2023-03-04T01:14:22.677Z,21.42
2023-03-04T01:16:27.002Z,20.27
2023-03-04T01:18:30.644Z,20.98
2023-03-04T01:20:33.750Z,20.50
2023-03-04T01:22:36.626Z,22.73
2023-03-04T01:24:39.542Z,21.80
2023-03-04T01:26:42.447Z,22.70
2023-03-04T01:28:45.257Z,22.05
2023-03-04T01:30:48.145Z,21.77
2023-03-04T01:32:52.297Z,20.80
2023-03-04T01:34:55.078Z,22.45
2023-03-04T01:36:57.922Z,22.83
2023-03-04T01:39:00.731Z,23.17
2023-03-04T01:41:03.845Z,22.88
2023-03-04T01:43:07.961Z,23.63
2023-03-04T01:45:15.335Z,23.45
2023-03-04T01:47:19.096Z,22.30
2023-03-04T01:49:24.116Z,22.33
2023-03-04T01:51:26.931Z,23.05
2023-03-04T01:53:30.630Z,22.27
2023-03-04T01:55:33.935Z,20.95
2023-03-04T01:57:37.241Z,23.10
2023-03-04T01:59:40.075Z,21.05
2023-03-04T02:01:45.360Z,23.95
2023-03-04T02:03:48.199Z,23.63
2023-03-04T02:05:54.359Z,22.05
2023-03-04T02:07:59.312Z,22.38
2023-03-04T02:10:02.207Z,21.90
2023-03-04T02:12:05.399Z,23.60
2023-03-04T02:14:08.550Z,22.85
2023-03-04T02:16:11.307Z,22.70
2023-03-04T02:18:17.642Z,22.95
2023-03-04T02:20:32.761Z,22.80
2023-03-04T02:22:44.058Z,22.80
2023-03-04T02:24:51.244Z,22.27
2023-03-04T02:26:55.687Z,21.60
2023-03-04T02:29:01.034Z,22.88
2023-03-04T02:31:03.890Z,21.15
2023-03-04T02:33:07.139Z,22.40
2023-03-04T02:35:17.175Z,22.25
2023-03-04T02:37:21.977Z,22.13
2023-03-04T02:39:32.641Z,22.40
2023-03-04T02:41:35.800Z,21.75
2023-03-04T02:43:39.939Z,22.27
2023-03-04T02:45:45.865Z,24.80
2023-03-04T02:47:48.738Z,22.13
2023-03-04T02:49:51.576Z,22.88
2023-03-04T02:52:00.074Z,24.70
2023-03-04T02:54:03.932Z,21.85
2023-03-04T02:56:07.293Z,22.10
2023-03-04T02:58:13.136Z,22.52
2023-03-04T03:00:18.158Z,22.25
2023-03-04T03:02:20.993Z,23.60
2023-03-04T03:04:24.878Z,23.33
2023-03-04T03:06:29.651Z,23.30
2023-03-04T03:08:32.498Z,24.17
2023-03-04T03:10:37.322Z,23.92
2023-03-04T03:12:42.362Z,23.50
2023-03-04T03:14:45.188Z,23.80
2023-03-04T03:16:51.517Z,23.92
2023-03-04T03:18:54.424Z,24.13
2023-03-04T03:20:58.234Z,22.83
2023-03-04T03:23:00.988Z,22.55
2023-03-04T03:25:04.692Z,24.15
2023-03-04T03:27:07.527Z,26.50
2023-03-04T03:29:10.393Z,26.92
2023-03-04T03:31:13.280Z,26.95
2023-03-04T03:33:17.696Z,24.05
2023-03-04T03:35:20.657Z,24.02
2023-03-04T03:37:23.492Z,25.27
2023-03-04T03:39:26.274Z,26.00
2023-03-04T03:41:29.070Z,28.95
2023-03-04T03:43:31.868Z,28.90
2023-03-04T03:45:34.700Z,25.67
2023-03-04T03:47:37.637Z,24.75
2023-03-04T03:49:41.769Z,26.40
2023-03-04T03:51:44.683Z,23.40
2023-03-04T03:53:47.476Z,22.88
2023-03-04T03:55:50.259Z,22.38
2023-03-04T03:57:53.003Z,24.48
2023-03-04T03:59:55.817Z,23.02
2023-03-04T04:01:58.638Z,23.17
2023-03-04T04:04:01.533Z,21.25
2023-03-04T04:06:06.109Z,23.52
2023-03-04T04:08:08.963Z,22.90
2023-03-04T04:10:12.592Z,22.40
2023-03-04T04:12:16.661Z,21.90
2023-03-04T04:14:19.445Z,22.60
2023-03-04T04:16:22.549Z,22.05
2023-03-04T04:18:25.902Z,20.92
2023-03-04T04:20:28.883Z,21.02
2023-03-04T04:22:33.149Z,21.33
2023-03-04T04:24:36.191Z,22.35
2023-03-04T04:26:39.002Z,21.20
2023-03-04T04:28:41.832Z,21.70
2023-03-04T04:30:44.704Z,20.85
2023-03-04T04:32:47.529Z,20.10
2023-03-04T04:34:50.295Z,22.10
2023-03-04T04:36:53.172Z,22.52
2023-03-04T04:38:57.593Z,22.05
2023-03-04T04:41:01.021Z,22.40
2023-03-04T04:43:04.015Z,23.88
2023-03-04T04:45:08.340Z,21.50
2023-03-04T04:47:11.178Z,21.10
2023-03-04T04:49:13.037Z,20.90
2023-03-04T04:51:15.927Z,20.92
2023-03-04T04:53:18.675Z,22.08
2023-03-04T04:55:22.767Z,21.17
2023-03-04T04:57:25.828Z,22.10
2023-03-04T04:59:28.612Z,20.30
2023-03-04T05:01:31.682Z,21.02
2023-03-04T05:03:35.414Z,21.60
2023-03-04T05:05:38.136Z,22.17
2023-03-04T05:07:40.932Z,21.92
2023-03-04T05:09:43.703Z,21.80
2023-03-04T05:11:47.860Z,22.23
2023-03-04T05:13:50.744Z,22.55
2023-03-04T05:15:54.156Z,23.15
2023-03-04T05:17:57.421Z,22.10
2023-03-04T05:20:00.201Z,22.80
2023-03-04T05:22:02.990Z,21.90
2023-03-04T05:24:06.096Z,20.95
2023-03-04T05:26:10.105Z,19.80
2023-03-04T05:28:14.574Z,20.33
2023-03-04T05:30:17.569Z,21.48
2023-03-04T05:32:20.316Z,22.48
2023-03-04T05:34:23.141Z,23.58
2023-03-04T05:36:25.897Z,24.27
2023-03-04T05:38:28.671Z,22.67
2023-03-04T05:40:31.471Z,21.48
2023-03-04T05:42:34.221Z,20.55
2023-03-04T05:44:38.318Z,20.83
2023-03-04T05:46:41.123Z,22.50
2023-03-04T05:48:44.848Z,21.95
2023-03-04T05:50:47.757Z,22.27
2023-03-04T05:52:50.829Z,22.63
2023-03-04T05:54:53.624Z,21.98
2023-03-04T05:56:56.366Z,21.33
2023-03-04T05:58:59.288Z,22.45
2023-03-04T06:01:04.066Z,21.23
2023-03-04T06:03:06.801Z,21.30
2023-03-04T06:05:11.016Z,21.73
2023-03-04T06:07:13.732Z,20.92
2023-03-04T06:09:16.817Z,21.17
2023-03-04T06:11:19.521Z,20.85
2023-03-04T06:13:22.961Z,20.42
2023-03-04T06:15:25.712Z,19.05
2023-03-04T06:17:30.371Z,19.80
2023-03-04T06:19:33.083Z,19.13
2023-03-04T06:21:35.848Z,17.73
2023-03-04T06:23:38.683Z,19.10
2023-03-04T06:25:41.441Z,18.35
2023-03-04T06:27:44.157Z,19.02
2023-03-04T06:29:46.901Z,18.50
2023-03-04T06:31:49.648Z,19.02
2023-03-04T06:33:53.720Z,19.63
2023-03-04T06:35:58.335Z,19.65
2023-03-04T06:38:01.199Z,18.52
2023-03-04T06:40:04.596Z,19.90
2023-03-04T06:42:07.446Z,19.27
2023-03-04T06:44:10.468Z,21.58
2023-03-04T06:46:13.337Z,23.25
2023-03-04T06:48:16.068Z,21.30
2023-03-04T06:50:20.368Z,23.90
2023-03-04T06:52:23.137Z,18.60
2023-03-04T06:54:25.971Z,20.90
2023-03-04T06:56:29.012Z,19.88
2023-03-04T06:58:31.902Z,20.98
2023-03-04T07:00:34.829Z,19.73
2023-03-04T07:02:37.664Z,20.08
2023-03-04T07:04:40.831Z,19.40
2023-03-04T07:06:44.947Z,17.52
2023-03-04T07:08:48.034Z,19.45
2023-03-04T07:10:50.883Z,18.80
2023-03-04T07:12:53.622Z,18.30
2023-03-04T07:14:56.346Z,17.35
2023-03-04T07:16:59.189Z,17.73
2023-03-04T07:19:02.663Z,16.95
2023-03-04T07:21:06.707Z,16.02
2023-03-04T07:23:10.824Z,16.58
2023-03-04T07:25:14.012Z,16.23
2023-03-04T07:27:16.842Z,14.80
2023-03-04T07:29:19.680Z,15.05
2023-03-04T07:31:24.813Z,14.60
2023-03-04T07:33:27.627Z,16.35
2023-03-04T07:35:30.406Z,16.13
2023-03-04T07:37:33.169Z,14.20
2023-03-04T07:39:37.297Z,14.13
2023-03-04T07:41:40.716Z,14.50
2023-03-04T07:43:44.038Z,14.38
2023-03-04T07:45:46.862Z,12.88
2023-03-04T07:47:49.617Z,13.68
2023-03-04T07:49:52.383Z,14.25
2023-03-04T07:51:55.137Z,14.32
2023-03-04T07:53:59.451Z,15.55
2023-03-04T07:56:03.744Z,15.52
2023-03-04T07:58:06.494Z,15.32
2023-03-04T08:00:12.216Z,16.38
2023-03-04T08:02:17.985Z,14.43
2023-03-04T08:04:20.783Z,15.10
2023-03-04T08:06:24.531Z,13.98
2023-03-04T08:08:27.267Z,14.55
2023-03-04T08:10:30.008Z,14.15
2023-03-04T08:12:34.125Z,13.27
2023-03-04T08:14:36.929Z,13.27
2023-03-04T08:16:39.913Z,15.52
2023-03-04T08:18:43.765Z,14.25
2023-03-04T08:20:46.505Z,13.60
2023-03-04T08:22:49.266Z,13.95
2023-03-04T08:24:52.046Z,13.98
2023-03-04T08:26:55.242Z,13.75
2023-03-04T08:29:01.558Z,13.02
2023-03-04T08:31:04.537Z,15.23
2023-03-04T08:33:07.934Z,14.93
2023-03-04T08:35:10.682Z,14.60
2023-03-04T08:37:13.393Z,13.65
2023-03-04T08:39:18.078Z,15.27
2023-03-04T08:41:20.914Z,16.40
2023-03-04T08:43:25.541Z,15.50
2023-03-04T08:45:29.702Z,16.88
2023-03-04T08:47:32.433Z,16.23
2023-03-04T08:49:35.145Z,16.85
2023-03-04T08:51:37.926Z,16.50
2023-03-04T08:53:40.990Z,14.32
2023-03-04T08:55:44.903Z,14.52
2023-03-04T08:57:47.768Z,14.50
2023-03-04T08:59:50.514Z,14.05
2023-03-04T09:01:54.634Z,13.38
2023-03-04T09:03:57.488Z,15.23
2023-03-04T09:06:02.644Z,14.07
2023-03-04T09:08:05.580Z,14.70
2023-03-04T09:10:09.454Z,15.32
2023-03-04T09:12:12.322Z,16.05
2023-03-04T09:14:15.129Z,15.85
2023-03-04T09:16:18.106Z,15.85
2023-03-04T09:18:24.267Z,15.27
2023-03-04T09:20:27.125Z,16.00
2023-03-04T09:22:29.838Z,15.00
2023-03-04T09:24:32.631Z,16.63
2023-03-04T09:26:35.404Z,16.17
2023-03-04T09:28:38.159Z,17.08
2023-03-04T09:30:41.281Z,16.17
2023-03-04T09:32:44.013Z,16.02
2023-03-04T09:34:48.177Z,15.93
2023-03-04T09:36:50.935Z,16.13
2023-03-04T09:38:53.737Z,17.20
2023-03-04T09:40:57.511Z,15.68
2023-03-04T09:43:04.306Z,15.18
2023-03-04T09:45:08.829Z,14.27
2023-03-04T09:47:15.266Z,14.63
2023-03-04T09:49:20.353Z,14.65
2023-03-04T09:51:42.653Z,14.15
2023-03-04T09:53:55.372Z,14.93
2023-03-04T09:55:59.068Z,14.82
2023-03-04T09:58:07.991Z,15.30
2023-03-04T10:00:19.842Z,15.38
2023-03-04T10:02:32.775Z,15.82
2023-03-04T10:04:41.157Z,15.32
2023-03-04T10:06:51.562Z,17.38
2023-03-04T10:09:00.757Z,17.23
2023-03-04T10:11:07.492Z,17.08
2023-03-04T10:13:16.268Z,17.35
2023-03-04T10:15:28.666Z,21.45
2023-03-04T10:17:37.907Z,17.13
2023-03-04T10:19:56.422Z,17.25
2023-03-04T10:22:00.530Z,16.02
2023-03-04T10:24:12.067Z,16.70
2023-03-04T10:26:17.178Z,17.08
2023-03-04T10:28:24.339Z,17.80
2023-03-04T10:30:41.342Z,17.75
2023-03-04T10:32:47.718Z,22.83
2023-03-04T10:34:50.467Z,17.10
2023-03-04T10:36:59.156Z,16.42
2023-03-04T10:39:07.331Z,16.70
2023-03-04T10:41:14.723Z,16.88
2023-03-04T10:43:19.410Z,18.52
2023-03-04T10:45:36.674Z,17.45
2023-03-04T10:47:39.479Z,17.08
2023-03-04T10:49:52.354Z,18.38
2023-03-04T10:52:02.723Z,19.60
2023-03-04T10:54:11.807Z,18.23
2023-03-04T10:56:36.652Z,19.08
2023-03-04T10:58:39.392Z,23.73
2023-03-04T11:00:42.598Z,19.50
2023-03-04T11:02:46.494Z,19.02
2023-03-04T11:04:55.870Z,18.40
2023-03-04T11:06:58.636Z,18.77
2023-03-04T11:09:01.420Z,18.38
2023-03-04T11:11:22.615Z,19.15
2023-03-04T11:13:28.020Z,19.52
2023-03-04T11:15:32.337Z,18.75
2023-03-04T11:17:44.931Z,24.05
2023-03-04T11:19:52.422Z,20.92
2023-03-04T11:22:00.294Z,21.38
2023-03-04T11:24:13.384Z,22.17
2023-03-04T11:26:31.919Z,19.30
2023-03-04T11:28:45.365Z,21.00
2023-03-04T11:30:51.300Z,20.00
2023-03-04T11:33:01.852Z,21.23
2023-03-04T11:35:16.747Z,20.98
2023-03-04T11:37:26.430Z,19.60
2023-03-04T11:39:35.390Z,19.35
2023-03-04T11:41:43.517Z,18.73
2023-03-04T11:43:48.533Z,20.85
2023-03-04T11:46:11.345Z,18.60
2023-03-04T11:48:24.805Z,19.80
2023-03-04T11:50:36.321Z,20.55
2023-03-04T11:53:09.164Z,19.10
2023-03-04T11:55:30.819Z,21.48
2023-03-04T11:57:42.651Z,20.13
2023-03-04T11:59:54.952Z,20.83
2023-03-04T12:02:12.553Z,19.92
2023-03-04T12:04:28.749Z,20.42
2023-03-04T12:06:44.165Z,19.67
2023-03-04T12:08:59.206Z,19.98
2023-03-04T12:11:06.592Z,21.00
2023-03-04T12:13:48.180Z,21.13
2023-03-04T12:16:01.476Z,21.30
2023-03-04T12:18:22.089Z,19.98
2023-03-04T12:20:41.515Z,20.60
2023-03-04T12:22:46.772Z,19.65
2023-03-04T12:25:10.629Z,20.35
2023-03-04T12:27:25.090Z,19.70
2023-03-04T12:29:39.123Z,20.90
2023-03-04T12:31:44.544Z,19.85
2023-03-04T12:34:00.568Z,21.10
2023-03-04T12:36:14.435Z,21.25
2023-03-04T12:38:31.810Z,20.35
2023-03-04T12:40:44.228Z,21.25
2023-03-04T12:43:00.968Z,21.00
2023-03-04T12:45:16.683Z,20.13
2023-03-04T12:47:29.979Z,20.67
2023-03-04T12:49:52.889Z,21.02
2023-03-04T12:52:04.321Z,22.23
2023-03-04T12:54:20.320Z,21.40
2023-03-04T12:56:27.808Z,20.73
2023-03-04T12:58:34.406Z,20.70
2023-03-04T13:00:54.120Z,20.45
2023-03-04T13:03:08.466Z,20.15
2023-03-04T13:05:46.840Z,21.70
2023-03-04T13:08:00.432Z,21.77
2023-03-04T13:10:09.187Z,20.90
2023-03-04T13:12:17.010Z,22.10
2023-03-04T13:14:31.959Z,21.33
2023-03-04T13:16:40.047Z,20.88
2023-03-04T13:18:45.070Z,21.48
2023-03-04T13:20:48.011Z,21.27
2023-03-04T13:22:55.713Z,21.83
2023-03-04T13:24:59.379Z,20.77
2023-03-04T13:27:04.542Z,21.85
2023-03-04T13:29:27.257Z,20.25
2023-03-04T13:31:30.473Z,21.77
2023-03-04T13:34:04.464Z,21.30
2023-03-04T13:36:26.734Z,22.17
2023-03-04T13:38:36.348Z,20.83
2023-03-04T13:40:39.600Z,21.05
2023-03-04T13:42:45.009Z,21.42
2023-03-04T13:45:06.152Z,20.13
2023-03-04T13:47:10.789Z,21.25
2023-03-04T13:49:23.606Z,21.05
2023-03-04T13:51:30.628Z,21.10
2023-03-04T13:53:44.726Z,20.67
2023-03-04T13:56:07.579Z,21.17
2023-03-04T13:58:19.363Z,22.05
2023-03-04T14:00:22.331Z,21.77
2023-03-04T14:02:27.203Z,21.48
2023-03-04T14:04:35.687Z,21.00
2023-03-04T14:06:42.716Z,21.27
2023-03-04T14:08:45.623Z,20.55
2023-03-04T14:10:56.986Z,21.58
2023-03-04T14:13:01.720Z,21.25
2023-03-04T14:15:07.344Z,21.75
2023-03-04T14:17:19.275Z,20.85
2023-03-04T14:19:26.273Z,20.10
2023-03-04T14:21:31.050Z,20.98
2023-03-04T14:23:36.516Z,19.27
2023-03-04T14:25:39.266Z,21.15
2023-03-04T14:27:42.557Z,19.58
2023-03-04T14:29:45.287Z,19.80
2023-03-04T14:31:48.209Z,19.95
2023-03-04T14:33:54.037Z,19.67
2023-03-04T14:35:59.664Z,19.80
2023-03-04T14:38:07.719Z,18.65
2023-03-04T14:40:21.259Z,18.98
2023-03-04T14:42:26.767Z,18.67
2023-03-04T14:44:35.993Z,19.20
2023-03-04T14:46:42.174Z,18.15
2023-03-04T14:48:50.213Z,18.65
2023-03-04T14:50:55.373Z,19.10
2023-03-04T14:53:16.604Z,19.00
2023-03-04T14:55:22.754Z,18.80
2023-03-04T14:57:27.390Z,19.52
2023-03-04T14:59:34.832Z,18.88
2023-03-04T15:01:38.835Z,19.48
2023-03-04T15:03:44.644Z,19.15
2023-03-04T15:05:47.656Z,21.05
2023-03-04T15:07:56.326Z,20.05
2023-03-04T15:10:03.177Z,18.35
2023-03-04T15:12:09.393Z,18.33
2023-03-04T15:14:44.768Z,18.50
2023-03-04T15:16:55.831Z,16.80
2023-03-04T15:19:02.034Z,17.27
2023-03-04T15:21:06.800Z,18.38
2023-03-04T15:23:14.625Z,19.52
2023-03-04T15:25:20.420Z,17.38
2023-03-04T15:27:25.112Z,17.58
2023-03-04T15:29:27.867Z,18.08
2023-03-04T15:31:31.124Z,17.55
2023-03-04T15:33:33.973Z,19.00
2023-03-04T15:35:36.895Z,18.90
2023-03-04T15:37:41.670Z,17.25
2023-03-04T15:39:44.401Z,18.38
2023-03-04T15:41:50.490Z,18.77
2023-03-04T15:43:54.586Z,19.75
2023-03-04T15:45:57.344Z,21.35
2023-03-04T15:48:00.115Z,18.50
2023-03-04T15:50:04.059Z,20.30
2023-03-04T15:52:08.348Z,18.20
2023-03-04T15:54:14.295Z,18.88
2023-03-04T15:56:20.088Z,24.60
2023-03-04T15:58:24.219Z,23.50
2023-03-04T16:00:27.389Z,22.67
2023-03-04T16:02:30.511Z,23.70
2023-03-04T16:04:33.257Z,23.33
2023-03-04T16:06:36.495Z,22.98
2023-03-04T16:08:39.946Z,21.65
2023-03-04T16:10:43.898Z,19.27
2023-03-04T16:12:46.966Z,20.63
2023-03-04T16:14:51.305Z,19.67
2023-03-04T16:16:54.124Z,19.80
2023-03-04T16:18:56.831Z,20.88
2023-03-04T16:21:00.924Z,21.23
2023-03-04T16:23:04.414Z,20.88
2023-03-04T16:25:07.598Z,19.85
2023-03-04T16:27:11.403Z,20.38
2023-03-04T16:29:14.125Z,19.17
2023-03-04T16:31:19.441Z,23.23
2023-03-04T16:33:22.227Z,21.60
2023-03-04T16:35:27.662Z,18.77
2023-03-04T16:37:30.506Z,21.48
2023-03-04T16:39:33.497Z,20.63
2023-03-04T16:41:37.075Z,18.25
2023-03-04T16:43:40.080Z,19.35
2023-03-04T16:45:43.120Z,18.85
2023-03-04T16:47:47.283Z,19.27
2023-03-04T16:49:50.163Z,16.73
2023-03-04T16:51:52.909Z,17.75
2023-03-04T16:53:57.443Z,17.98
2023-03-04T16:56:04.955Z,16.30
2023-03-04T16:58:08.395Z,15.90
2023-03-04T17:00:12.497Z,16.38
2023-03-04T17:02:17.398Z,16.75
2023-03-04T17:04:22.328Z,15.52
2023-03-04T17:06:25.392Z,16.40
2023-03-04T17:08:28.152Z,17.25
2023-03-04T17:10:30.918Z,17.38
2023-03-04T17:12:33.710Z,18.60
2023-03-04T17:14:36.890Z,17.70
2023-03-04T17:16:39.682Z,16.17
2023-03-04T17:18:44.212Z,17.42
2023-03-04T17:20:48.314Z,16.13
2023-03-04T17:22:51.119Z,16.13
2023-03-04T17:24:53.846Z,14.55
2023-03-04T17:26:56.579Z,16.88
2023-03-04T17:28:59.321Z,15.13
2023-03-04T17:31:02.608Z,17.08
2023-03-04T17:33:05.475Z,15.60
2023-03-04T17:35:09.378Z,15.32
2023-03-04T17:37:13.641Z,15.57
2023-03-04T17:39:16.446Z,16.38
2023-03-04T17:41:19.300Z,15.25
2023-03-04T17:43:22.014Z,15.93
2023-03-04T17:45:24.891Z,14.48
2023-03-04T17:47:27.647Z,21.17
2023-03-04T17:49:30.363Z,17.00
2023-03-04T17:51:34.993Z,16.73
2023-03-04T17:53:39.685Z,17.25
2023-03-04T17:55:44.554Z,15.57
2023-03-04T17:57:47.367Z,17.00
2023-03-04T17:59:50.291Z,15.85
2023-03-04T18:01:54.296Z,16.80
2023-03-04T18:03:57.174Z,16.15
2023-03-04T18:06:00.001Z,16.00
2023-03-04T18:08:02.754Z,16.17
2023-03-04T18:10:08.154Z,16.17
2023-03-04T18:12:11.120Z,21.58
2023-03-04T18:14:13.930Z,22.38
2023-03-04T18:16:23.129Z,18.27
2023-03-04T18:18:26.054Z,19.67
2023-03-04T18:20:28.813Z,19.27
2023-03-04T18:22:31.564Z,20.65
2023-03-04T18:24:34.461Z,21.45
2023-03-04T18:26:38.539Z,22.70
2023-03-04T18:28:41.432Z,21.58
2023-03-04T18:30:44.162Z,18.17
2023-03-04T18:32:52.195Z,15.85
2023-03-04T18:34:55.314Z,18.65
2023-03-04T18:36:58.018Z,18.63
2023-03-04T18:39:02.285Z,17.55
2023-03-04T18:41:07.406Z,16.75
2023-03-04T18:43:13.966Z,18.17
2023-03-04T18:45:17.517Z,18.17
2023-03-04T18:47:20.535Z,19.13
2023-03-04T18:49:24.168Z,18.42
2023-03-04T18:51:26.988Z,21.15
2023-03-04T18:53:30.664Z,21.70
2023-03-04T18:55:33.428Z,21.17
2023-03-04T18:57:36.275Z,20.23
2023-03-04T18:59:44.271Z,20.10
2023-03-04T19:01:47.869Z,18.48
2023-03-04T19:03:51.024Z,18.98
2023-03-04T19:05:55.464Z,19.10
2023-03-04T19:07:58.370Z,19.48
2023-03-04T19:10:01.175Z,19.27
2023-03-04T19:12:06.430Z,20.02
2023-03-04T19:14:09.398Z,18.05
2023-03-04T19:16:13.594Z,17.25
2023-03-04T19:18:16.331Z,19.42
2023-03-04T19:20:19.387Z,18.45
2023-03-04T19:22:22.179Z,17.17
2023-03-04T19:24:25.128Z,17.77
2023-03-04T19:26:27.883Z,18.10
2023-03-04T19:28:30.661Z,17.67
2023-03-04T19:30:33.944Z,17.45
2023-03-04T19:32:38.121Z,18.50
2023-03-04T19:34:40.941Z,19.38
2023-03-04T19:36:43.830Z,19.98
2023-03-04T19:38:46.589Z,18.40
2023-03-04T19:40:49.324Z,19.48
2023-03-04T19:42:52.029Z,19.13
2023-03-04T19:44:55.033Z,18.70
2023-03-04T19:46:57.889Z,19.40
2023-03-04T19:49:04.686Z,18.20
2023-03-04T19:51:14.595Z,18.27
2023-03-04T19:53:18.733Z,19.88
2023-03-04T19:55:21.984Z,19.15
2023-03-04T19:57:24.687Z,18.48
2023-03-04T19:59:27.528Z,18.88
2023-03-04T20:01:32.117Z,19.48
2023-03-04T20:03:34.952Z,19.70
2023-03-04T20:05:39.373Z,19.67
2023-03-04T20:07:43.710Z,18.48
2023-03-04T20:09:46.481Z,18.20
2023-03-04T20:11:59.048Z,19.55
2023-03-04T20:14:03.258Z,19.77
2023-03-04T20:16:08.857Z,18.25
2023-03-04T20:18:11.685Z,19.70
2023-03-04T20:20:15.797Z,19.23
2023-03-04T20:22:19.962Z,18.85
2023-03-04T20:24:23.226Z,19.10
2023-03-04T20:26:26.118Z,19.58
2023-03-04T20:28:29.606Z,20.40
2023-03-04T20:30:32.402Z,19.13
2023-03-04T20:32:35.209Z,20.55
2023-03-04T20:34:38.061Z,20.77
2023-03-04T20:36:40.816Z,20.42
2023-03-04T20:38:45.489Z,20.77
2023-03-04T20:40:48.263Z,21.17
2023-03-04T20:42:50.992Z,21.60
2023-03-04T20:44:53.770Z,21.02
2023-03-04T20:46:56.610Z,21.38
2023-03-04T20:49:01.284Z,20.50
2023-03-04T20:51:04.160Z,20.65
2023-03-04T20:53:06.901Z,20.33
2023-03-04T20:55:11.910Z,21.05
2023-03-04T20:57:14.679Z,21.52
2023-03-04T20:59:17.802Z,20.58
2023-03-04T21:01:20.816Z,21.67
2023-03-04T21:03:23.641Z,19.83
2023-03-04T21:05:27.504Z,20.08
2023-03-04T21:07:30.311Z,21.40
2023-03-04T21:09:33.103Z,22.45
2023-03-04T21:11:40.576Z,21.55
2023-03-04T21:13:44.728Z,25.38
2023-03-04T21:15:48.129Z,26.13
2023-03-04T21:17:51.047Z,23.98
2023-03-04T21:19:53.893Z,24.85
2023-03-04T21:21:58.511Z,25.00
2023-03-04T21:24:01.350Z,23.55
2023-03-04T21:26:04.424Z,24.33
2023-03-04T21:28:08.798Z,25.42
2023-03-04T21:30:12.983Z,25.90
2023-03-04T21:32:24.620Z,25.80
2023-03-04T21:34:33.381Z,23.98
2023-03-04T21:36:36.149Z,24.42
2023-03-04T21:38:39.573Z,24.45
2023-03-04T21:40:42.952Z,25.05
2023-03-04T21:42:45.743Z,24.25
2023-03-04T21:44:51.448Z,22.75
2023-03-04T21:46:54.692Z,25.63
2023-03-04T21:48:57.523Z,23.65
2023-03-04T21:51:02.825Z,23.45
2023-03-04T21:53:05.589Z,22.92
2023-03-04T21:55:09.150Z,22.20
2023-03-04T21:57:13.360Z,23.48
2023-03-04T21:59:17.397Z,22.88
2023-03-04T22:01:23.222Z,22.02
2023-03-04T22:03:27.100Z,23.75
2023-03-04T22:05:29.905Z,23.80
2023-03-04T22:07:34.557Z,21.50
2023-03-04T22:09:37.342Z,22.25
2023-03-04T22:11:40.128Z,21.90
2023-03-04T22:13:43.158Z,22.75
2023-03-04T22:15:46.114Z,20.38
2023-03-04T22:17:50.871Z,21.13
2023-03-04T22:19:53.687Z,20.67
2023-03-04T22:21:56.485Z,21.30
2023-03-04T22:23:59.254Z,22.40
2023-03-04T22:26:04.839Z,21.30
2023-03-04T22:28:08.637Z,21.70
2023-03-04T22:30:12.520Z,21.58
2023-03-04T22:32:16.950Z,20.25
2023-03-04T22:34:21.110Z,19.70
2023-03-04T22:36:23.850Z,18.10
2023-03-04T22:38:26.664Z,18.80
2023-03-04T22:40:29.388Z,18.60
2023-03-04T22:42:32.122Z,18.08
2023-03-04T22:44:35.794Z,19.00
2023-03-04T22:46:39.875Z,17.60
2023-03-04T22:48:42.660Z,18.10
2023-03-04T22:50:46.770Z,18.70
2023-03-04T22:52:50.132Z,19.10
2023-03-04T22:54:53.063Z,20.02
2023-03-04T22:56:55.895Z,18.65
2023-03-04T22:58:58.645Z,19.38
2023-03-04T23:01:02.454Z,19.27
2023-03-04T23:03:06.364Z,18.48
2023-03-04T23:05:10.718Z,19.23
2023-03-04T23:07:14.834Z,19.23
2023-03-04T23:09:17.607Z,17.65
2023-03-04T23:11:22.359Z,19.05
2023-03-04T23:13:25.850Z,19.88
2023-03-04T23:15:28.665Z,19.08
2023-03-04T23:17:31.458Z,19.63
2023-03-04T23:19:34.219Z,20.13
2023-03-04T23:21:38.028Z,19.75
2023-03-04T23:23:42.552Z,19.98
2023-03-04T23:25:46.485Z,22.20
2023-03-04T23:27:49.332Z,21.98
2023-03-04T23:29:52.362Z,21.38
2023-03-04T23:31:55.184Z,20.73
2023-03-04T23:33:59.214Z,21.70
2023-03-04T23:36:02.055Z,24.27
2023-03-04T23:38:04.824Z,22.45
2023-03-04T23:40:10.706Z,21.05
2023-03-04T23:42:13.591Z,20.65
2023-03-04T23:44:16.374Z,21.08
2023-03-04T23:46:19.306Z,20.45
2023-03-04T23:48:22.066Z,19.92
2023-03-04T23:50:24.816Z,20.00
2023-03-04T23:52:28.047Z,23.77
2023-03-04T23:54:31.221Z,22.50
2023-03-04T23:56:35.417Z,20.67
2023-03-04T23:58:38.537Z,21.45
